Ocean Hunter — WDH6487 — position and weather

sailwx.info

Track history (hours):
 
Tides and Currents Weather Stations Pressure Air Temp Water Temp Dewpoint Dewpoint Depression Visibility Wind Speed Wind Dir Waves Ship Positions

Ocean Hunter

Owner: Ocean Hunter Enterprises LLC, Mount Vernon, WA. More information available from US FCC via Universal Licensing System and Coast Guard Vessel Documentation Center.

Last reported at 2018-Jun-21 11:01 UTC. Time now 2018-Jun-21 22:07 UTC.
Position N 46°60' W 124°35'.

Length 27 m.

Type: Fishing. MMSI: 366986010.

Date/timePositionNaut miles runAvg speedWind from/ knotsBaromVisibWave heightAir tempDewpointWater temp
2018-Jun-21 11:01N 46°60' W 124°35'010.1
2018-Jun-21 11:00N 46°60' W 124°35'4 8.2
2018-Jun-21 10:31N 46°56' W 124°32'4 8.4
2018-Jun-21 10:00N 46°52' W 124°30'4 8.1
2018-Jun-21 09:31N 46°49' W 124°28'6 8.2
2018-Jun-21 08:49N 46°44' W 124°25'3 8.2
2018-Jun-21 08:30N 46°41' W 124°23'4 8.1
2018-Jun-21 08:00N 46°38' W 124°21'4 8.1
2018-Jun-21 07:30N 46°34' W 124°19'4 8.2
2018-Jun-21 06:59N 46°30' W 124°17'4 8.3
2018-Jun-21 06:31N 46°26' W 124°15'6 8.0
2018-Jun-21 05:49N 46°21' W 124°12'2 7.8
2018-Jun-21 05:30N 46°19' W 124°10'4 8.0
2018-Jun-21 05:00N 46°15' W 124°07'4 8.9
2018-Jun-21 04:30N 46°15' W 124°00'5 9.4
2018-Jun-21 04:01N 46°12' W 123°55'3 4.4
2018-Jun-21 03:25N 46°11' W 123°51'0 0.0
2018-Jun-21 02:38N 46°11' W 123°51'0 0.0
2018-Jun-21 02:26N 46°11' W 123°51'0 0.0
2018-Jun-21 01:49N 46°11' W 123°51'0 0.0
2018-Jun-21 01:27N 46°11' W 123°51'0 0.0
2018-Jun-21 00:59N 46°11' W 123°51'0 0.0
2018-Jun-21 00:30N 46°11' W 123°51'0 0.0
2018-Jun-20 23:46N 46°11' W 123°51'0 0.0
2018-Jun-20 23:19N 46°11' W 123°51'0 0.0
2018-Jun-20 22:54N 46°11' W 123°51'0 0.0
2018-Jun-20 22:27N 46°11' W 123°51'0 0.0
2018-Jun-20 21:57N 46°11' W 123°51'0 0.0
2018-Jun-20 21:28N 46°11' W 123°51'1 2.6
2018-Jun-20 21:01N 46°12' W 123°53'4 6.5
2018-Jun-20 20:27N 46°13' W 123°58'3 5.5
2018-Jun-20 19:58N 46°15' W 124°00'3 4.7
2018-Jun-20 19:22N 46°16' W 124°04'1 3.7
2018-Jun-20 19:00N 46°15' W 124°06'3 4.5
2018-Jun-20 18:24N 46°18' W 124°09'3 6.1
2018-Jun-20 17:56N 46°20' W 124°11'4 7.0
2018-Jun-20 17:24N 46°23' W 124°14'2 5.7
2018-Jun-20 16:58N 46°25' W 124°15'3 6.0
2018-Jun-20 16:24N 46°28' W 124°18'3 5.8
2018-Jun-20 15:56N 46°31' W 124°20'3 5.9
2018-Jun-20 15:24N 46°33' W 124°22'3 6.4
2018-Jun-20 14:59N 46°36' W 124°24'3 5.9
2018-Jun-20 14:29N 46°38' W 124°26'3 5.8
2018-Jun-20 14:00N 46°41' W 124°28'3 6.2
2018-Jun-20 13:30N 46°43' W 124°30'3 6.4
2018-Jun-20 12:59N 46°46' W 124°33'3 5.9
2018-Jun-20 12:24N 46°49' W 124°35'3 6.2
2018-Jun-20 11:59N 46°51' W 124°37'3 6.3
2018-Jun-20 11:28N 46°54' W 124°39'5 6.5
2018-Jun-20 10:46N 46°58' W 124°43'2 6.5
2018-Jun-20 10:30N 46°60' W 124°44'3 6.3
2018-Jun-20 10:00N 47°03' W 124°46'3 6.3
2018-Jun-20 09:31N 47°05' W 124°49'3 6.1
2018-Jun-20 09:00N 47°08' W 124°52'3 6.2
2018-Jun-20 08:30N 47°10' W 124°54'2 4.3
2018-Jun-20 08:00N 47°12' W 124°55'0 0.8
2018-Jun-20 07:30N 47°12' W 124°54'1 1.2
2018-Jun-20 06:59N 47°12' W 124°55'2 1.4
2018-Jun-20 05:35N 47°10' W 124°55'0 2.7
2018-Jun-20 05:30N 47°10' W 124°55'2 2.9
2018-Jun-20 04:56N 47°12' W 124°55'0 0.2
2018-Jun-20 04:30N 47°12' W 124°55'2 3.8
2018-Jun-20 04:00N 47°10' W 124°56'4 5.6
2018-Jun-20 03:20N 47°13' W 124°53'3 8.7
2018-Jun-20 02:58N 47°15' W 124°49'4 8.5
2018-Jun-20 02:30N 47°17' W 124°44'1 2.4
2018-Jun-20 02:00N 47°18' W 124°43'3 5.5
2018-Jun-20 01:28N 47°20' W 124°47'1 1.1
2018-Jun-20 00:58N 47°21' W 124°46'0 0.6
2018-Jun-20 00:16N 47°21' W 124°46'1 2.5
2018-Jun-20 00:00N 47°20' W 124°46'1 2.5
2018-Jun-19 23:29N 47°19' W 124°46'1 2.7
2018-Jun-19 23:00N 47°18' W 124°46'2 5.0
2018-Jun-19 22:30N 47°20' W 124°46'3 6.9
2018-Jun-19 22:00N 47°17' W 124°47'9 8.0
2018-Jun-19 20:55N 47°10' W 124°55'1 1.3
2018-Jun-19 20:30N 47°10' W 124°55'1 2.2
2018-Jun-19 19:59N 47°11' W 124°55'1 2.7
2018-Jun-19 19:27N 47°12' W 124°55'1 2.4
2018-Jun-19 18:59N 47°11' W 124°55'1 2.4
2018-Jun-19 18:30N 47°10' W 124°56'0 0.4
2018-Jun-19 17:45N 47°10' W 124°55'0 1.0
2018-Jun-19 17:31N 47°10' W 124°56'1 2.3
2018-Jun-19 17:00N 47°11' W 124°55'3 2.8
2018-Jun-19 16:06N 47°13' W 124°53'1 1.3
2018-Jun-19 15:16N 47°14' W 124°53'2 6.5
2018-Jun-19 15:01N 47°13' W 124°54'3 4.7
2018-Jun-19 14:22N 47°12' W 124°58'2 6.0
2018-Jun-19 13:59N 47°12' W 124°55'1 2.5
2018-Jun-19 13:30N 47°10' W 124°55'4 8.0
2018-Jun-19 13:00N 47°07' W 124°52'4 8.1
2018-Jun-19 12:30N 47°03' W 124°49'4 8.4
2018-Jun-19 12:00N 46°59' W 124°46'5 8.4
2018-Jun-19 11:28N 46°55' W 124°45'4 8.4
2018-Jun-19 11:01N 46°51' W 124°43'4 8.3
2018-Jun-19 10:30N 46°47' W 124°41'4 8.2
2018-Jun-19 10:00N 46°43' W 124°39'4 8.2
2018-Jun-19 09:31N 46°40' W 124°36'4 8.1
2018-Jun-19 09:00N 46°37' W 124°33'4 8.2
2018-Jun-19 08:30N 46°33' W 124°29'4 7.8
2018-Jun-19 08:00N 46°30' W 124°26'4 7.6
2018-Jun-19 07:30N 46°27' W 124°23'4 7.4
2018-Jun-19 07:01N 46°24' W 124°20'4 7.5
2018-Jun-19 06:30N 46°21' W 124°16'4 7.9
2018-Jun-19 06:01N 46°18' W 124°13'4 8.0
2018-Jun-19 05:31N 46°16' W 124°08'510.3
2018-Jun-19 05:00N 46°15' W 124°01'511.0
2018-Jun-19 04:30N 46°12' W 123°55'2 4.8
2018-Jun-19 04:00N 46°11' W 123°51'0 0.0
2018-Jun-19 03:30N 46°11' W 123°51'0 0.0
2018-Jun-19 03:01N 46°11' W 123°51'0 0.0
2018-Jun-19 02:30N 46°11' W 123°51'0 0.0
2018-Jun-19 02:00N 46°11' W 123°51'0 0.0
2018-Jun-19 01:31N 46°11' W 123°51'0 0.0
2018-Jun-19 01:00N 46°11' W 123°51'0 0.0
2018-Jun-19 00:31N 46°11' W 123°51'0 0.0
2018-Jun-19 00:00N 46°11' W 123°51'0 0.0
2018-Jun-18 23:30N 46°11' W 123°51'0 0.0
2018-Jun-18 23:01N 46°11' W 123°51'0 0.0
2018-Jun-18 22:31N 46°11' W 123°51'4 7.7
2018-Jun-18 22:00N 46°13' W 123°57'5 9.1
2018-Jun-18 21:30N 46°15' W 124°02'4 7.5
2018-Jun-18 21:00N 46°16' W 124°07'3 6.9
2018-Jun-18 20:31N 46°19' W 124°10'3 7.0
2018-Jun-18 20:00N 46°22' W 124°12'4 8.3
2018-Jun-18 19:31N 46°26' W 124°15'4 8.6
2018-Jun-18 19:00N 46°29' W 124°19'4 8.4
2018-Jun-18 18:30N 46°33' W 124°22'4 8.1
2018-Jun-18 18:00N 46°37' W 124°25'5 7.9
2018-Jun-18 17:21N 46°41' W 124°29'3 8.3
2018-Jun-18 17:00N 46°43' W 124°31'4 8.1
2018-Jun-18 16:30N 46°47' W 124°34'4 8.1
2018-Jun-18 16:00N 46°50' W 124°37'4 8.1
2018-Jun-18 15:30N 46°54' W 124°40'4 8.1
2018-Jun-18 15:00N 46°57' W 124°43'3 6.2
2018-Jun-18 14:30N 46°60' W 124°45'4 8.1
2018-Jun-18 14:00N 47°03' W 124°48'4 7.8
2018-Jun-18 13:30N 47°07' W 124°51'4 8.1
2018-Jun-18 13:00N 47°10' W 124°54'2 3.5
2018-Jun-18 12:26N 47°12' W 124°55'0 0.9
2018-Jun-18 11:56N 47°12' W 124°55'0 0.7
2018-Jun-18 11:30N 47°12' W 124°55'1 2.0
2018-Jun-18 11:00N 47°11' W 124°55'1 2.2
2018-Jun-18 10:30N 47°10' W 124°55'1 1.2
2018-Jun-18 10:01N 47°11' W 124°55'3 4.1
2018-Jun-18 09:19N 47°13' W 124°53'2 6.5
2018-Jun-18 09:00N 47°15' W 124°52'3 6.6
2018-Jun-18 08:30N 47°18' W 124°49'2 3.1
2018-Jun-18 08:00N 47°17' W 124°47'2 4.4
2018-Jun-18 07:29N 47°16' W 124°50'3 5.5
2018-Jun-18 06:59N 47°18' W 124°47'4 7.4
2018-Jun-18 06:30N 47°21' W 124°50'4 9.0
2018-Jun-18 06:00N 47°25' W 124°52'4 8.9
2018-Jun-18 05:30N 47°29' W 124°53'1 1.6
2018-Jun-18 05:00N 47°30' W 124°53'1 1.5
2018-Jun-18 04:30N 47°29' W 124°52'2 2.3
2018-Jun-18 03:51N 47°28' W 124°50'1 3.5
2018-Jun-18 03:31N 47°29' W 124°51'1 2.7
2018-Jun-18 03:00N 47°28' W 124°50'1 1.4
2018-Jun-18 02:06N 47°27' W 124°50'2 6.3
2018-Jun-18 01:43N 47°25' W 124°48'2 7.3
2018-Jun-18 01:30N 47°24' W 124°47'4 7.3
2018-Jun-18 01:00N 47°20' W 124°45'3 5.2
2018-Jun-18 00:30N 47°18' W 124°48'2 4.0
2018-Jun-18 00:00N 47°17' W 124°50'3 5.7
2018-Jun-17 23:30N 47°14' W 124°51'6 7.8
2018-Jun-17 22:45N 47°08' W 124°48'2 7.6
2018-Jun-17 22:30N 47°06' W 124°48'4 7.6
2018-Jun-17 22:00N 47°03' W 124°46'5 7.8
2018-Jun-17 21:18N 46°57' W 124°44'3 8.1
2018-Jun-17 20:57N 46°55' W 124°43'4 6.9
2018-Jun-17 20:23N 46°51' W 124°42'3 7.1
2018-Jun-17 20:01N 46°48' W 124°41'4 7.0
2018-Jun-17 19:30N 46°45' W 124°39'4 7.1
2018-Jun-17 19:01N 46°42' W 124°38'4 7.4
2018-Jun-17 18:30N 46°38' W 124°35'4 7.9
2018-Jun-17 18:00N 46°34' W 124°36'4 7.7
2018-Jun-17 17:30N 46°30' W 124°37'4 7.8
2018-Jun-17 17:00N 46°27' W 124°37'4 7.5
2018-Jun-17 16:30N 46°23' W 124°37'4 6.9
2018-Jun-17 15:56N 46°19' W 124°38'3 7.3
2018-Jun-17 15:31N 46°16' W 124°35'1 1.4
2018-Jun-17 15:00N 46°16' W 124°34'1 2.5
2018-Jun-17 14:30N 46°15' W 124°33'2 4.8
2018-Jun-17 14:01N 46°13' W 124°33'3 6.3
2018-Jun-17 13:30N 46°10' W 124°35'4 7.3
2018-Jun-17 13:00N 46°06' W 124°35'4 7.6
2018-Jun-17 12:30N 46°02' W 124°35'4 7.7
2018-Jun-17 12:00N 45°59' W 124°34'3 6.8
2018-Jun-17 11:31N 45°56' W 124°37'0 0.8
2018-Jun-17 11:01N 45°56' W 124°37'4 7.3
2018-Jun-17 10:30N 45°59' W 124°35'7 8.4
2018-Jun-17 09:44N 46°06' W 124°37'2 8.6
2018-Jun-17 09:30N 46°08' W 124°37'4 8.3
2018-Jun-17 09:00N 46°12' W 124°37'1 1.0
2018-Jun-17 08:31N 46°12' W 124°38'1 1.6
2018-Jun-17 08:00N 46°12' W 124°37'1 2.5
2018-Jun-17 07:30N 46°12' W 124°35'1 2.5
2018-Jun-17 06:59N 46°12' W 124°33'1 2.5
2018-Jun-17 06:30N 46°12' W 124°31'1 2.6
2018-Jun-17 06:01N 46°12' W 124°29'2 4.5
2018-Jun-17 05:30N 46°13' W 124°33'3 5.1
2018-Jun-17 05:00N 46°12' W 124°36'1 1.4
2018-Jun-17 04:31N 46°12' W 124°35'2 3.1
2018-Jun-17 04:01N 46°13' W 124°33'2 3.9
2018-Jun-17 03:30N 46°12' W 124°36'0 0.7
2018-Jun-17 03:01N 46°12' W 124°36'3 6.3
2018-Jun-17 02:30N 46°12' W 124°32'3 6.3
2018-Jun-17 02:00N 46°13' W 124°28'4 7.7
2018-Jun-17 01:30N 46°14' W 124°22'4 7.3
2018-Jun-17 01:00N 46°14' W 124°17'4 7.3
2018-Jun-17 00:30N 46°15' W 124°12'4 7.4
2018-Jun-17 00:00N 46°15' W 124°06'4 7.6
2018-Jun-16 23:31N 46°15' W 124°01'3 6.3
2018-Jun-16 23:00N 46°13' W 123°58'3 6.1
2018-Jun-16 22:30N 46°11' W 123°54'2 3.1
2018-Jun-16 22:00N 46°11' W 123°52'0 0.0
2018-Jun-16 21:30N 46°11' W 123°52'0 0.0
2018-Jun-16 21:00N 46°11' W 123°52'0 0.1
2018-Jun-16 20:31N 46°11' W 123°52'0 0.0
2018-Jun-16 20:01N 46°11' W 123°52'0 0.0
2018-Jun-16 19:28N 46°11' W 123°52'0 0.0
2018-Jun-16 19:00N 46°11' W 123°52'0 0.0
2018-Jun-16 18:30N 46°11' W 123°52'0 0.0
2018-Jun-16 18:00N 46°11' W 123°52'0 0.0
2018-Jun-16 17:31N 46°11' W 123°52'0 0.0
2018-Jun-16 17:00N 46°11' W 123°52'0 0.0
2018-Jun-16 16:30N 46°11' W 123°52'0 0.0
2018-Jun-16 16:01N 46°11' W 123°52'0 0.0
2018-Jun-16 15:30N 46°11' W 123°52'0 0.0
2018-Jun-16 15:00N 46°11' W 123°52'0 0.0
2018-Jun-16 14:30N 46°11' W 123°52'0 0.0
2018-Jun-16 14:01N 46°11' W 123°52'0 0.0
2018-Jun-16 13:30N 46°11' W 123°52'0 0.1
2018-Jun-16 13:00N 46°11' W 123°52'0 0.0
2018-Jun-16 12:30N 46°11' W 123°52'0 0.0
2018-Jun-15 22:38N 46°11' W 123°52'0 0.0
2018-Jun-15 22:30N 46°11' W 123°52'0 0.0
2018-Jun-15 22:00N 46°11' W 123°52'0 0.0
2018-Jun-15 21:30N 46°11' W 123°52'0 0.0
2018-Jun-15 21:00N 46°11' W 123°52'0 0.2
2018-Jun-15 20:31N 46°11' W 123°52'4 8.5
2018-Jun-15 20:00N 46°13' W 123°58'5 9.1
2018-Jun-15 19:31N 46°15' W 124°03'4 7.4
2018-Jun-15 19:01N 46°17' W 124°08'4 7.5
2018-Jun-15 18:31N 46°21' W 124°10'4 7.7
2018-Jun-15 18:01N 46°24' W 124°12'4 8.0
2018-Jun-15 17:30N 46°28' W 124°15'4 8.0
2018-Jun-15 17:01N 46°31' W 124°18'4 7.6
2018-Jun-15 16:31N 46°35' W 124°20'5 8.2
2018-Jun-15 15:51N 46°40' W 124°23'3 8.0
2018-Jun-15 15:30N 46°42' W 124°24'4 8.0
2018-Jun-15 15:00N 46°46' W 124°27'4 8.1
2018-Jun-15 14:30N 46°50' W 124°29'4 7.9
2018-Jun-15 14:00N 46°53' W 124°32'4 8.1
2018-Jun-15 13:30N 46°57' W 124°34'3 0.1
2018-Jun-14 14:12N 47°00' W 124°35'1 7.5
2018-Jun-14 14:01N 46°59' W 124°34'4 7.8
2018-Jun-14 13:30N 46°55' W 124°32'4 7.9
2018-Jun-14 13:00N 46°51' W 124°29'4 8.0
2018-Jun-14 12:31N 46°48' W 124°27'4 7.9
2018-Jun-14 12:01N 46°44' W 124°26'4 7.8
2018-Jun-14 11:30N 46°40' W 124°24'4 7.6
2018-Jun-14 11:00N 46°37' W 124°23'4 7.5
2018-Jun-14 10:31N 46°33' W 124°21'4 7.5
2018-Jun-14 10:01N 46°30' W 124°19'4 7.6
2018-Jun-14 09:31N 46°26' W 124°16'4 7.9
2018-Jun-14 09:00N 46°23' W 124°14'4 7.4
2018-Jun-14 08:31N 46°20' W 124°11'4 7.3
2018-Jun-14 08:00N 46°16' W 124°09'3 5.8
2018-Jun-14 07:30N 46°15' W 124°05'3 5.8
2018-Jun-14 06:59N 46°15' W 124°00'3 5.7
2018-Jun-14 06:31N 46°13' W 123°58'3 6.2
2018-Jun-14 06:01N 46°11' W 123°54'1 2.2
2018-Jun-14 05:22N 46°11' W 123°52'0 0.0
2018-Jun-14 05:00N 46°11' W 123°52'0 0.0
2018-Jun-14 04:31N 46°11' W 123°52'0 0.0
2018-Jun-14 04:00N 46°11' W 123°52'0 0.0
2018-Jun-14 03:19N 46°11' W 123°52'0 0.0
2018-Jun-14 03:01N 46°11' W 123°52'0 0.0
2018-Jun-14 02:31N 46°11' W 123°52'0 0.0
2018-Jun-14 02:00N 46°11' W 123°52'0 0.0
2018-Jun-14 01:31N 46°11' W 123°52'0 0.0
2018-Jun-14 01:00N 46°11' W 123°52'0 0.0
2018-Jun-14 00:31N 46°11' W 123°52'0 0.0
2018-Jun-14 00:01N 46°11' W 123°52'0 0.0
2018-Jun-13 23:31N 46°11' W 123°52'0 0.0
2018-Jun-13 23:00N 46°11' W 123°52'0 0.0
2018-Jun-13 22:31N 46°11' W 123°52'0 0.0
2018-Jun-13 22:01N 46°11' W 123°52'0 0.0
2018-Jun-13 21:31N 46°11' W 123°52'0 0.0
2018-Jun-13 21:00N 46°11' W 123°52'0 0.0
2018-Jun-13 20:30N 46°11' W 123°52'0 0.0
2018-Jun-13 20:01N 46°11' W 123°52'0 0.0
2018-Jun-13 19:30N 46°11' W 123°52'0 0.0
2018-Jun-13 19:00N 46°11' W 123°52'0 0.0
2018-Jun-13 18:30N 46°11' W 123°52'0 0.0
2018-Jun-13 18:00N 46°11' W 123°52'0 0.0
2018-Jun-13 17:31N 46°11' W 123°52'1 1.6
2018-Jun-13 16:51N 46°12' W 123°50'0 0.0
2018-Jun-13 16:31N 46°12' W 123°50'1 2.2
2018-Jun-13 16:00N 46°11' W 123°52'0 0.3
2018-Jun-13 15:31N 46°11' W 123°52'0 0.0
2018-Jun-13 15:00N 46°11' W 123°52'0 0.0
2018-Jun-13 14:30N 46°11' W 123°52'0 0.0
2018-Jun-13 14:00N 46°11' W 123°52'0 0.0
2018-Jun-13 13:31N 46°11' W 123°52'0 0.0
2018-Jun-13 13:00N 46°11' W 123°52'0 0.0
2018-Jun-13 12:30N 46°11' W 123°52'0 0.0
2018-Jun-13 12:01N 46°11' W 123°52'0 0.0
2018-Jun-13 11:30N 46°11' W 123°52'0 0.0
2018-Jun-13 11:00N 46°11' W 123°52'0 0.0
2018-Jun-13 10:31N 46°11' W 123°52'0 0.0
2018-Jun-13 10:01N 46°11' W 123°52'0 0.0
2018-Jun-13 09:31N 46°11' W 123°52'0 0.0
2018-Jun-13 09:00N 46°11' W 123°52'0 0.0
2018-Jun-13 08:30N 46°11' W 123°52'3 5.6
2018-Jun-13 08:00N 46°12' W 123°56'4 7.8
2018-Jun-13 07:30N 46°14' W 123°60'4 8.4
2018-Jun-13 06:59N 46°16' W 124°06'6 8.0
2018-Jun-13 06:14N 46°21' W 124°10'2 8.0
2018-Jun-13 06:01N 46°23' W 124°11'4 8.2
2018-Jun-13 05:30N 46°26' W 124°14'4 8.6
2018-Jun-13 05:01N 46°30' W 124°16'4 8.4
2018-Jun-13 04:30N 46°34' W 124°19'6 7.9
2018-Jun-13 03:47N 46°39' W 124°22'3 7.8
2018-Jun-13 03:28N 46°41' W 124°24'4 8.7
2018-Jun-13 03:00N 46°45' W 124°26'7 8.6
2018-Jun-13 02:14N 46°51' W 124°30'2 8.8
2018-Jun-13 02:00N 46°53' W 124°32'5 8.9
2018-Jun-13 01:29N 46°57' W 124°35'4 8.8
2018-Jun-13 01:00N 47°01' W 124°37'6 0.5
2018-Jun-12 12:06N 47°06' W 124°43'1 7.7
2018-Jun-12 11:57N 47°05' W 124°42'5 7.5
2018-Jun-12 11:17N 47°00' W 124°39'2 7.2
2018-Jun-12 11:00N 46°58' W 124°37'4 7.3
2018-Jun-12 10:30N 46°55' W 124°35'4 7.5
2018-Jun-12 10:00N 46°52' W 124°33'4 7.7
2018-Jun-12 09:30N 46°48' W 124°30'4 7.7
2018-Jun-12 09:01N 46°45' W 124°28'4 7.5
2018-Jun-12 08:30N 46°41' W 124°26'4 7.5
2018-Jun-12 08:00N 46°38' W 124°24'4 7.6
2018-Jun-12 07:31N 46°35' W 124°21'5 7.7
2018-Jun-12 06:51N 46°30' W 124°18'3 7.6
2018-Jun-12 06:30N 46°28' W 124°16'4 7.6
2018-Jun-12 06:01N 46°24' W 124°14'4 7.3
2018-Jun-12 05:31N 46°21' W 124°12'3 6.9
2018-Jun-12 05:00N 46°18' W 124°09'3 6.5
2018-Jun-12 04:30N 46°16' W 124°06'3 6.3
2018-Jun-12 04:00N 46°16' W 124°02'5 7.0
2018-Jun-12 03:16N 46°12' W 123°56'2 7.4
2018-Jun-12 03:01N 46°11' W 123°53'1 1.6
2018-Jun-12 02:20N 46°11' W 123°52'0 0.0
2018-Jun-12 02:00N 46°11' W 123°52'0 0.0
2018-Jun-12 01:30N 46°11' W 123°52'0 0.0
2018-Jun-12 01:00N 46°11' W 123°52'0 0.0
2018-Jun-12 00:31N 46°11' W 123°52'0 0.0
2018-Jun-12 00:01N 46°11' W 123°52'0 0.0
2018-Jun-11 23:31N 46°11' W 123°52'0 0.0
2018-Jun-11 23:00N 46°11' W 123°52'0 0.0
2018-Jun-11 22:30N 46°11' W 123°52'0 0.0
2018-Jun-11 21:52N 46°11' W 123°52'0 0.0
2018-Jun-11 21:30N 46°11' W 123°52'0 0.0
2018-Jun-11 21:00N 46°11' W 123°52'0 0.0
2018-Jun-11 20:29N 46°11' W 123°52'0 0.0
2018-Jun-11 20:01N 46°11' W 123°52'0 0.0
2018-Jun-11 19:31N 46°11' W 123°52'0 0.0
2018-Jun-11 19:01N 46°11' W 123°52'0 0.0
2018-Jun-11 18:31N 46°11' W 123°52'0 0.0
2018-Jun-11 17:41N 46°11' W 123°52'0 0.0
2018-Jun-11 17:30N 46°11' W 123°52'0 0.0
2018-Jun-11 17:00N 46°11' W 123°52'0 0.0
2018-Jun-11 16:30N 46°11' W 123°52'0 0.4
2018-Jun-11 15:47N 46°11' W 123°52'2 8.0
2018-Jun-11 15:31N 46°12' W 123°55'4 8.1
2018-Jun-11 15:01N 46°14' W 123°60'4 6.7
2018-Jun-11 14:23N 46°15' W 124°06'2 5.7
2018-Jun-11 14:01N 46°14' W 124°08'2 5.0
2018-Jun-11 13:31N 46°14' W 124°12'2 4.7
2018-Jun-11 13:00N 46°14' W 124°15'1 2.5
2018-Jun-11 12:30N 46°14' W 124°17'2 2.8
2018-Jun-11 11:56N 46°14' W 124°19'2 4.3
2018-Jun-11 11:30N 46°14' W 124°22'  
Track history (hours):
 
Tides and Currents Weather Stations Pressure Air Temp Water Temp Dewpoint Dewpoint Depression Visibility Wind Speed Wind Dir Waves Ship Positions

Ocean Hunter

Owner: Ocean Hunter Enterprises LLC, Mount Vernon, WA. More information available from US FCC via Universal Licensing System and Coast Guard Vessel Documentation Center.

Last reported at 2018-Jun-21 11:01 UTC. Time now 2018-Jun-21 22:07 UTC.
Position N 46°60' W 124°35'.

Length 27 m.

Type: Fishing. MMSI: 366986010.

Date/timePositionNaut miles runAvg speedWind from/ knotsBaromVisibWave heightAir tempDewpointWater temp
2018-Jun-21 11:01N 46°60' W 124°35'010.1
2018-Jun-21 11:00N 46°60' W 124°35'4 8.2
2018-Jun-21 10:31N 46°56' W 124°32'4 8.4
2018-Jun-21 10:00N 46°52' W 124°30'4 8.1
2018-Jun-21 09:31N 46°49' W 124°28'6 8.2
2018-Jun-21 08:49N 46°44' W 124°25'3 8.2
2018-Jun-21 08:30N 46°41' W 124°23'4 8.1
2018-Jun-21 08:00N 46°38' W 124°21'4 8.1
2018-Jun-21 07:30N 46°34' W 124°19'4 8.2
2018-Jun-21 06:59N 46°30' W 124°17'4 8.3
2018-Jun-21 06:31N 46°26' W 124°15'6 8.0
2018-Jun-21 05:49N 46°21' W 124°12'2 7.8
2018-Jun-21 05:30N 46°19' W 124°10'4 8.0
2018-Jun-21 05:00N 46°15' W 124°07'4 8.9
2018-Jun-21 04:30N 46°15' W 124°00'5 9.4
2018-Jun-21 04:01N 46°12' W 123°55'3 4.4
2018-Jun-21 03:25N 46°11' W 123°51'0 0.0
2018-Jun-21 02:38N 46°11' W 123°51'0 0.0
2018-Jun-21 02:26N 46°11' W 123°51'0 0.0
2018-Jun-21 01:49N 46°11' W 123°51'0 0.0
2018-Jun-21 01:27N 46°11' W 123°51'0 0.0
2018-Jun-21 00:59N 46°11' W 123°51'0 0.0
2018-Jun-21 00:30N 46°11' W 123°51'0 0.0
2018-Jun-20 23:46N 46°11' W 123°51'0 0.0
2018-Jun-20 23:19N 46°11' W 123°51'0 0.0
2018-Jun-20 22:54N 46°11' W 123°51'0 0.0
2018-Jun-20 22:27N 46°11' W 123°51'0 0.0
2018-Jun-20 21:57N 46°11' W 123°51'0 0.0
2018-Jun-20 21:28N 46°11' W 123°51'1 2.6
2018-Jun-20 21:01N 46°12' W 123°53'4 6.5
2018-Jun-20 20:27N 46°13' W 123°58'3 5.5
2018-Jun-20 19:58N 46°15' W 124°00'3 4.7
2018-Jun-20 19:22N 46°16' W 124°04'1 3.7
2018-Jun-20 19:00N 46°15' W 124°06'3 4.5
2018-Jun-20 18:24N 46°18' W 124°09'3 6.1
2018-Jun-20 17:56N 46°20' W 124°11'4 7.0
2018-Jun-20 17:24N 46°23' W 124°14'2 5.7
2018-Jun-20 16:58N 46°25' W 124°15'3 6.0
2018-Jun-20 16:24N 46°28' W 124°18'3 5.8
2018-Jun-20 15:56N 46°31' W 124°20'3 5.9
2018-Jun-20 15:24N 46°33' W 124°22'3 6.4
2018-Jun-20 14:59N 46°36' W 124°24'3 5.9
2018-Jun-20 14:29N 46°38' W 124°26'3 5.8
2018-Jun-20 14:00N 46°41' W 124°28'3 6.2
2018-Jun-20 13:30N 46°43' W 124°30'3 6.4
2018-Jun-20 12:59N 46°46' W 124°33'3 5.9
2018-Jun-20 12:24N 46°49' W 124°35'3 6.2
2018-Jun-20 11:59N 46°51' W 124°37'3 6.3
2018-Jun-20 11:28N 46°54' W 124°39'5 6.5
2018-Jun-20 10:46N 46°58' W 124°43'2 6.5
2018-Jun-20 10:30N 46°60' W 124°44'3 6.3
2018-Jun-20 10:00N 47°03' W 124°46'3 6.3
2018-Jun-20 09:31N 47°05' W 124°49'3 6.1
2018-Jun-20 09:00N 47°08' W 124°52'3 6.2
2018-Jun-20 08:30N 47°10' W 124°54'2 4.3
2018-Jun-20 08:00N 47°12' W 124°55'0 0.8
2018-Jun-20 07:30N 47°12' W 124°54'1 1.2
2018-Jun-20 06:59N 47°12' W 124°55'2 1.4
2018-Jun-20 05:35N 47°10' W 124°55'0 2.7
2018-Jun-20 05:30N 47°10' W 124°55'2 2.9
2018-Jun-20 04:56N 47°12' W 124°55'0 0.2
2018-Jun-20 04:30N 47°12' W 124°55'2 3.8
2018-Jun-20 04:00N 47°10' W 124°56'4 5.6
2018-Jun-20 03:20N 47°13' W 124°53'3 8.7
2018-Jun-20 02:58N 47°15' W 124°49'4 8.5
2018-Jun-20 02:30N 47°17' W 124°44'1 2.4
2018-Jun-20 02:00N 47°18' W 124°43'3 5.5
2018-Jun-20 01:28N 47°20' W 124°47'1 1.1
2018-Jun-20 00:58N 47°21' W 124°46'0 0.6
2018-Jun-20 00:16N 47°21' W 124°46'1 2.5
2018-Jun-20 00:00N 47°20' W 124°46'1 2.5
2018-Jun-19 23:29N 47°19' W 124°46'1 2.7
2018-Jun-19 23:00N 47°18' W 124°46'2 5.0
2018-Jun-19 22:30N 47°20' W 124°46'3 6.9
2018-Jun-19 22:00N 47°17' W 124°47'9 8.0
2018-Jun-19 20:55N 47°10' W 124°55'1 1.3
2018-Jun-19 20:30N 47°10' W 124°55'1 2.2
2018-Jun-19 19:59N 47°11' W 124°55'1 2.7
2018-Jun-19 19:27N 47°12' W 124°55'1 2.4
2018-Jun-19 18:59N 47°11' W 124°55'1 2.4
2018-Jun-19 18:30N 47°10' W 124°56'0 0.4
2018-Jun-19 17:45N 47°10' W 124°55'0 1.0
2018-Jun-19 17:31N 47°10' W 124°56'1 2.3
2018-Jun-19 17:00N 47°11' W 124°55'3 2.8
2018-Jun-19 16:06N 47°13' W 124°53'1 1.3
2018-Jun-19 15:16N 47°14' W 124°53'2 6.5
2018-Jun-19 15:01N 47°13' W 124°54'3 4.7
2018-Jun-19 14:22N 47°12' W 124°58'2 6.0
2018-Jun-19 13:59N 47°12' W 124°55'1 2.5
2018-Jun-19 13:30N 47°10' W 124°55'4 8.0
2018-Jun-19 13:00N 47°07' W 124°52'4 8.1
2018-Jun-19 12:30N 47°03' W 124°49'4 8.4
2018-Jun-19 12:00N 46°59' W 124°46'5 8.4
2018-Jun-19 11:28N 46°55' W 124°45'4 8.4
2018-Jun-19 11:01N 46°51' W 124°43'4 8.3
2018-Jun-19 10:30N 46°47' W 124°41'4 8.2
2018-Jun-19 10:00N 46°43' W 124°39'4 8.2
2018-Jun-19 09:31N 46°40' W 124°36'4 8.1
2018-Jun-19 09:00N 46°37' W 124°33'4 8.2
2018-Jun-19 08:30N 46°33' W 124°29'4 7.8
2018-Jun-19 08:00N 46°30' W 124°26'4 7.6
2018-Jun-19 07:30N 46°27' W 124°23'4 7.4
2018-Jun-19 07:01N 46°24' W 124°20'4 7.5
2018-Jun-19 06:30N 46°21' W 124°16'4 7.9
2018-Jun-19 06:01N 46°18' W 124°13'4 8.0
2018-Jun-19 05:31N 46°16' W 124°08'510.3
2018-Jun-19 05:00N 46°15' W 124°01'511.0
2018-Jun-19 04:30N 46°12' W 123°55'2 4.8
2018-Jun-19 04:00N 46°11' W 123°51'0 0.0
2018-Jun-19 03:30N 46°11' W 123°51'0 0.0
2018-Jun-19 03:01N 46°11' W 123°51'0 0.0
2018-Jun-19 02:30N 46°11' W 123°51'0 0.0
2018-Jun-19 02:00N 46°11' W 123°51'0 0.0
2018-Jun-19 01:31N 46°11' W 123°51'0 0.0
2018-Jun-19 01:00N 46°11' W 123°51'0 0.0
2018-Jun-19 00:31N 46°11' W 123°51'0 0.0
2018-Jun-19 00:00N 46°11' W 123°51'0 0.0
2018-Jun-18 23:30N 46°11' W 123°51'0 0.0
2018-Jun-18 23:01N 46°11' W 123°51'0 0.0
2018-Jun-18 22:31N 46°11' W 123°51'4 7.7
2018-Jun-18 22:00N 46°13' W 123°57'5 9.1
2018-Jun-18 21:30N 46°15' W 124°02'4 7.5
2018-Jun-18 21:00N 46°16' W 124°07'3 6.9
2018-Jun-18 20:31N 46°19' W 124°10'3 7.0
2018-Jun-18 20:00N 46°22' W 124°12'4 8.3
2018-Jun-18 19:31N 46°26' W 124°15'4 8.6
2018-Jun-18 19:00N 46°29' W 124°19'4 8.4
2018-Jun-18 18:30N 46°33' W 124°22'4 8.1
2018-Jun-18 18:00N 46°37' W 124°25'5 7.9
2018-Jun-18 17:21N 46°41' W 124°29'3 8.3
2018-Jun-18 17:00N 46°43' W 124°31'4 8.1
2018-Jun-18 16:30N 46°47' W 124°34'4 8.1
2018-Jun-18 16:00N 46°50' W 124°37'4 8.1
2018-Jun-18 15:30N 46°54' W 124°40'4 8.1
2018-Jun-18 15:00N 46°57' W 124°43'3 6.2
2018-Jun-18 14:30N 46°60' W 124°45'4 8.1
2018-Jun-18 14:00N 47°03' W 124°48'4 7.8
2018-Jun-18 13:30N 47°07' W 124°51'4 8.1
2018-Jun-18 13:00N 47°10' W 124°54'2 3.5
2018-Jun-18 12:26N 47°12' W 124°55'0 0.9
2018-Jun-18 11:56N 47°12' W 124°55'0 0.7
2018-Jun-18 11:30N 47°12' W 124°55'1 2.0
2018-Jun-18 11:00N 47°11' W 124°55'1 2.2
2018-Jun-18 10:30N 47°10' W 124°55'1 1.2
2018-Jun-18 10:01N 47°11' W 124°55'3 4.1
2018-Jun-18 09:19N 47°13' W 124°53'2 6.5
2018-Jun-18 09:00N 47°15' W 124°52'3 6.6
2018-Jun-18 08:30N 47°18' W 124°49'2 3.1
2018-Jun-18 08:00N 47°17' W 124°47'2 4.4
2018-Jun-18 07:29N 47°16' W 124°50'3 5.5
2018-Jun-18 06:59N 47°18' W 124°47'4 7.4
2018-Jun-18 06:30N 47°21' W 124°50'4 9.0
2018-Jun-18 06:00N 47°25' W 124°52'4 8.9
2018-Jun-18 05:30N 47°29' W 124°53'1 1.6
2018-Jun-18 05:00N 47°30' W 124°53'1 1.5
2018-Jun-18 04:30N 47°29' W 124°52'2 2.3
2018-Jun-18 03:51N 47°28' W 124°50'1 3.5
2018-Jun-18 03:31N 47°29' W 124°51'1 2.7
2018-Jun-18 03:00N 47°28' W 124°50'1 1.4
2018-Jun-18 02:06N 47°27' W 124°50'2 6.3
2018-Jun-18 01:43N 47°25' W 124°48'2 7.3
2018-Jun-18 01:30N 47°24' W 124°47'4 7.3
2018-Jun-18 01:00N 47°20' W 124°45'3 5.2
2018-Jun-18 00:30N 47°18' W 124°48'2 4.0
2018-Jun-18 00:00N 47°17' W 124°50'3 5.7
2018-Jun-17 23:30N 47°14' W 124°51'6 7.8
2018-Jun-17 22:45N 47°08' W 124°48'2 7.6
2018-Jun-17 22:30N 47°06' W 124°48'4 7.6
2018-Jun-17 22:00N 47°03' W 124°46'5 7.8
2018-Jun-17 21:18N 46°57' W 124°44'3 8.1
2018-Jun-17 20:57N 46°55' W 124°43'4 6.9
2018-Jun-17 20:23N 46°51' W 124°42'3 7.1
2018-Jun-17 20:01N 46°48' W 124°41'4 7.0
2018-Jun-17 19:30N 46°45' W 124°39'4 7.1
2018-Jun-17 19:01N 46°42' W 124°38'4 7.4
2018-Jun-17 18:30N 46°38' W 124°35'4 7.9
2018-Jun-17 18:00N 46°34' W 124°36'4 7.7
2018-Jun-17 17:30N 46°30' W 124°37'4 7.8
2018-Jun-17 17:00N 46°27' W 124°37'4 7.5
2018-Jun-17 16:30N 46°23' W 124°37'4 6.9
2018-Jun-17 15:56N 46°19' W 124°38'3 7.3
2018-Jun-17 15:31N 46°16' W 124°35'1 1.4
2018-Jun-17 15:00N 46°16' W 124°34'1 2.5
2018-Jun-17 14:30N 46°15' W 124°33'2 4.8
2018-Jun-17 14:01N 46°13' W 124°33'3 6.3
2018-Jun-17 13:30N 46°10' W 124°35'4 7.3
2018-Jun-17 13:00N 46°06' W 124°35'4 7.6
2018-Jun-17 12:30N 46°02' W 124°35'4 7.7
2018-Jun-17 12:00N 45°59' W 124°34'3 6.8
2018-Jun-17 11:31N 45°56' W 124°37'0 0.8
2018-Jun-17 11:01N 45°56' W 124°37'4 7.3
2018-Jun-17 10:30N 45°59' W 124°35'7 8.4
2018-Jun-17 09:44N 46°06' W 124°37'2 8.6
2018-Jun-17 09:30N 46°08' W 124°37'4 8.3
2018-Jun-17 09:00N 46°12' W 124°37'1 1.0
2018-Jun-17 08:31N 46°12' W 124°38'1 1.6
2018-Jun-17 08:00N 46°12' W 124°37'1 2.5
2018-Jun-17 07:30N 46°12' W 124°35'1 2.5
2018-Jun-17 06:59N 46°12' W 124°33'1 2.5
2018-Jun-17 06:30N 46°12' W 124°31'1 2.6
2018-Jun-17 06:01N 46°12' W 124°29'2 4.5
2018-Jun-17 05:30N 46°13' W 124°33'3 5.1
2018-Jun-17 05:00N 46°12' W 124°36'1 1.4
2018-Jun-17 04:31N 46°12' W 124°35'2 3.1
2018-Jun-17 04:01N 46°13' W 124°33'2 3.9
2018-Jun-17 03:30N 46°12' W 124°36'0 0.7
2018-Jun-17 03:01N 46°12' W 124°36'3 6.3
2018-Jun-17 02:30N 46°12' W 124°32'3 6.3
2018-Jun-17 02:00N 46°13' W 124°28'4 7.7
2018-Jun-17 01:30N 46°14' W 124°22'4 7.3
2018-Jun-17 01:00N 46°14' W 124°17'4 7.3
2018-Jun-17 00:30N 46°15' W 124°12'4 7.4
2018-Jun-17 00:00N 46°15' W 124°06'4 7.6
2018-Jun-16 23:31N 46°15' W 124°01'3 6.3
2018-Jun-16 23:00N 46°13' W 123°58'3 6.1
2018-Jun-16 22:30N 46°11' W 123°54'2 3.1
2018-Jun-16 22:00N 46°11' W 123°52'0 0.0
2018-Jun-16 21:30N 46°11' W 123°52'0 0.0
2018-Jun-16 21:00N 46°11' W 123°52'0 0.1
2018-Jun-16 20:31N 46°11' W 123°52'0 0.0
2018-Jun-16 20:01N 46°11' W 123°52'0 0.0
2018-Jun-16 19:28N 46°11' W 123°52'0 0.0
2018-Jun-16 19:00N 46°11' W 123°52'0 0.0
2018-Jun-16 18:30N 46°11' W 123°52'0 0.0
2018-Jun-16 18:00N 46°11' W 123°52'0 0.0
2018-Jun-16 17:31N 46°11' W 123°52'0 0.0
2018-Jun-16 17:00N 46°11' W 123°52'0 0.0
2018-Jun-16 16:30N 46°11' W 123°52'0 0.0
2018-Jun-16 16:01N 46°11' W 123°52'0 0.0
2018-Jun-16 15:30N 46°11' W 123°52'0 0.0
2018-Jun-16 15:00N 46°11' W 123°52'0 0.0
2018-Jun-16 14:30N 46°11' W 123°52'0 0.0
2018-Jun-16 14:01N 46°11' W 123°52'0 0.0
2018-Jun-16 13:30N 46°11' W 123°52'0 0.1
2018-Jun-16 13:00N 46°11' W 123°52'0 0.0
2018-Jun-16 12:30N 46°11' W 123°52'0 0.0
2018-Jun-15 22:38N 46°11' W 123°52'0 0.0
2018-Jun-15 22:30N 46°11' W 123°52'0 0.0
2018-Jun-15 22:00N 46°11' W 123°52'0 0.0
2018-Jun-15 21:30N 46°11' W 123°52'0 0.0
2018-Jun-15 21:00N 46°11' W 123°52'0 0.2
2018-Jun-15 20:31N 46°11' W 123°52'4 8.5
2018-Jun-15 20:00N 46°13' W 123°58'5 9.1
2018-Jun-15 19:31N 46°15' W 124°03'4 7.4
2018-Jun-15 19:01N 46°17' W 124°08'4 7.5
2018-Jun-15 18:31N 46°21' W 124°10'4 7.7
2018-Jun-15 18:01N 46°24' W 124°12'4 8.0
2018-Jun-15 17:30N 46°28' W 124°15'4 8.0
2018-Jun-15 17:01N 46°31' W 124°18'4 7.6
2018-Jun-15 16:31N 46°35' W 124°20'5 8.2
2018-Jun-15 15:51N 46°40' W 124°23'3 8.0
2018-Jun-15 15:30N 46°42' W 124°24'4 8.0
2018-Jun-15 15:00N 46°46' W 124°27'4 8.1
2018-Jun-15 14:30N 46°50' W 124°29'4 7.9
2018-Jun-15 14:00N 46°53' W 124°32'4 8.1
2018-Jun-15 13:30N 46°57' W 124°34'3 0.1
2018-Jun-14 14:12N 47°00' W 124°35'1 7.5
2018-Jun-14 14:01N 46°59' W 124°34'4 7.8
2018-Jun-14 13:30N 46°55' W 124°32'4 7.9
2018-Jun-14 13:00N 46°51' W 124°29'4 8.0
2018-Jun-14 12:31N 46°48' W 124°27'4 7.9
2018-Jun-14 12:01N 46°44' W 124°26'4 7.8
2018-Jun-14 11:30N 46°40' W 124°24'4 7.6
2018-Jun-14 11:00N 46°37' W 124°23'4 7.5
2018-Jun-14 10:31N 46°33' W 124°21'4 7.5
2018-Jun-14 10:01N 46°30' W 124°19'4 7.6
2018-Jun-14 09:31N 46°26' W 124°16'4 7.9
2018-Jun-14 09:00N 46°23' W 124°14'4 7.4
2018-Jun-14 08:31N 46°20' W 124°11'4 7.3
2018-Jun-14 08:00N 46°16' W 124°09'3 5.8
2018-Jun-14 07:30N 46°15' W 124°05'3 5.8
2018-Jun-14 06:59N 46°15' W 124°00'3 5.7
2018-Jun-14 06:31N 46°13' W 123°58'3 6.2
2018-Jun-14 06:01N 46°11' W 123°54'1 2.2
2018-Jun-14 05:22N 46°11' W 123°52'0 0.0
2018-Jun-14 05:00N 46°11' W 123°52'0 0.0
2018-Jun-14 04:31N 46°11' W 123°52'0 0.0
2018-Jun-14 04:00N 46°11' W 123°52'0 0.0
2018-Jun-14 03:19N 46°11' W 123°52'0 0.0
2018-Jun-14 03:01N 46°11' W 123°52'0 0.0
2018-Jun-14 02:31N 46°11' W 123°52'0 0.0
2018-Jun-14 02:00N 46°11' W 123°52'0 0.0
2018-Jun-14 01:31N 46°11' W 123°52'0 0.0
2018-Jun-14 01:00N 46°11' W 123°52'0 0.0
2018-Jun-14 00:31N 46°11' W 123°52'0 0.0
2018-Jun-14 00:01N 46°11' W 123°52'0 0.0
2018-Jun-13 23:31N 46°11' W 123°52'0 0.0
2018-Jun-13 23:00N 46°11' W 123°52'0 0.0
2018-Jun-13 22:31N 46°11' W 123°52'0 0.0
2018-Jun-13 22:01N 46°11' W 123°52'0 0.0
2018-Jun-13 21:31N 46°11' W 123°52'0 0.0
2018-Jun-13 21:00N 46°11' W 123°52'0 0.0
2018-Jun-13 20:30N 46°11' W 123°52'0 0.0
2018-Jun-13 20:01N 46°11' W 123°52'0 0.0
2018-Jun-13 19:30N 46°11' W 123°52'0 0.0
2018-Jun-13 19:00N 46°11' W 123°52'0 0.0
2018-Jun-13 18:30N 46°11' W 123°52'0 0.0
2018-Jun-13 18:00N 46°11' W 123°52'0 0.0
2018-Jun-13 17:31N 46°11' W 123°52'1 1.6
2018-Jun-13 16:51N 46°12' W 123°50'0 0.0
2018-Jun-13 16:31N 46°12' W 123°50'1 2.2
2018-Jun-13 16:00N 46°11' W 123°52'0 0.3
2018-Jun-13 15:31N 46°11' W 123°52'0 0.0
2018-Jun-13 15:00N 46°11' W 123°52'0 0.0
2018-Jun-13 14:30N 46°11' W 123°52'0 0.0
2018-Jun-13 14:00N 46°11' W 123°52'0 0.0
2018-Jun-13 13:31N 46°11' W 123°52'0 0.0
2018-Jun-13 13:00N 46°11' W 123°52'0 0.0
2018-Jun-13 12:30N 46°11' W 123°52'0 0.0
2018-Jun-13 12:01N 46°11' W 123°52'0 0.0
2018-Jun-13 11:30N 46°11' W 123°52'0 0.0
2018-Jun-13 11:00N 46°11' W 123°52'0 0.0
2018-Jun-13 10:31N 46°11' W 123°52'0 0.0
2018-Jun-13 10:01N 46°11' W 123°52'0 0.0
2018-Jun-13 09:31N 46°11' W 123°52'0 0.0
2018-Jun-13 09:00N 46°11' W 123°52'0 0.0
2018-Jun-13 08:30N 46°11' W 123°52'3 5.6
2018-Jun-13 08:00N 46°12' W 123°56'4 7.8
2018-Jun-13 07:30N 46°14' W 123°60'4 8.4
2018-Jun-13 06:59N 46°16' W 124°06'6 8.0
2018-Jun-13 06:14N 46°21' W 124°10'2 8.0
2018-Jun-13 06:01N 46°23' W 124°11'4 8.2
2018-Jun-13 05:30N 46°26' W 124°14'4 8.6
2018-Jun-13 05:01N 46°30' W 124°16'4 8.4
2018-Jun-13 04:30N 46°34' W 124°19'6 7.9
2018-Jun-13 03:47N 46°39' W 124°22'3 7.8
2018-Jun-13 03:28N 46°41' W 124°24'4 8.7
2018-Jun-13 03:00N 46°45' W 124°26'7 8.6
2018-Jun-13 02:14N 46°51' W 124°30'2 8.8
2018-Jun-13 02:00N 46°53' W 124°32'5 8.9
2018-Jun-13 01:29N 46°57' W 124°35'4 8.8
2018-Jun-13 01:00N 47°01' W 124°37'6 0.5
2018-Jun-12 12:06N 47°06' W 124°43'1 7.7
2018-Jun-12 11:57N 47°05' W 124°42'5 7.5
2018-Jun-12 11:17N 47°00' W 124°39'2 7.2
2018-Jun-12 11:00N 46°58' W 124°37'4 7.3
2018-Jun-12 10:30N 46°55' W 124°35'4 7.5
2018-Jun-12 10:00N 46°52' W 124°33'4 7.7
2018-Jun-12 09:30N 46°48' W 124°30'4 7.7
2018-Jun-12 09:01N 46°45' W 124°28'4 7.5
2018-Jun-12 08:30N 46°41' W 124°26'4 7.5
2018-Jun-12 08:00N 46°38' W 124°24'4 7.6
2018-Jun-12 07:31N 46°35' W 124°21'5 7.7
2018-Jun-12 06:51N 46°30' W 124°18'3 7.6
2018-Jun-12 06:30N 46°28' W 124°16'4 7.6
2018-Jun-12 06:01N 46°24' W 124°14'4 7.3
2018-Jun-12 05:31N 46°21' W 124°12'3 6.9
2018-Jun-12 05:00N 46°18' W 124°09'3 6.5
2018-Jun-12 04:30N 46°16' W 124°06'3 6.3
2018-Jun-12 04:00N 46°16' W 124°02'5 7.0
2018-Jun-12 03:16N 46°12' W 123°56'2 7.4
2018-Jun-12 03:01N 46°11' W 123°53'1 1.6
2018-Jun-12 02:20N 46°11' W 123°52'0 0.0
2018-Jun-12 02:00N 46°11' W 123°52'0 0.0
2018-Jun-12 01:30N 46°11' W 123°52'0 0.0
2018-Jun-12 01:00N 46°11' W 123°52'0 0.0
2018-Jun-12 00:31N 46°11' W 123°52'0 0.0
2018-Jun-12 00:01N 46°11' W 123°52'0 0.0
2018-Jun-11 23:31N 46°11' W 123°52'0 0.0
2018-Jun-11 23:00N 46°11' W 123°52'0 0.0
2018-Jun-11 22:30N 46°11' W 123°52'0 0.0
2018-Jun-11 21:52N 46°11' W 123°52'0 0.0
2018-Jun-11 21:30N 46°11' W 123°52'0 0.0
2018-Jun-11 21:00N 46°11' W 123°52'0 0.0
2018-Jun-11 20:29N 46°11' W 123°52'0 0.0
2018-Jun-11 20:01N 46°11' W 123°52'0 0.0
2018-Jun-11 19:31N 46°11' W 123°52'0 0.0
2018-Jun-11 19:01N 46°11' W 123°52'0 0.0
2018-Jun-11 18:31N 46°11' W 123°52'0 0.0
2018-Jun-11 17:41N 46°11' W 123°52'0 0.0
2018-Jun-11 17:30N 46°11' W 123°52'0 0.0
2018-Jun-11 17:00N 46°11' W 123°52'0 0.0
2018-Jun-11 16:30N 46°11' W 123°52'0 0.4
2018-Jun-11 15:47N 46°11' W 123°52'2 8.0
2018-Jun-11 15:31N 46°12' W 123°55'4 8.1
2018-Jun-11 15:01N 46°14' W 123°60'4 6.7
2018-Jun-11 14:23N 46°15' W 124°06'2 5.7
2018-Jun-11 14:01N 46°14' W 124°08'2 5.0
2018-Jun-11 13:31N 46°14' W 124°12'2 4.7
2018-Jun-11 13:00N 46°14' W 124°15'1 2.5
2018-Jun-11 12:30N 46°14' W 124°17'2 2.8
2018-Jun-11 11:56N 46°14' W 124°19'2 4.3
2018-Jun-11 11:30N 46°14' W 124°22'  

Dump ship's entire track history